Time;durP1;ratioP1;P1;durP2;ratioP2;P2;SDS_P1;SDS_P2;PMS_P1;PMS_P2;Temp;Humidity;BMP_temperature;BMP_pressure;BME280_temperature;BME280_humidity;BME280_pressure;Samples;Min_cycle;Max_cycle;Signal;HPM_P1;HPM_P2
2022/05/27 00:00:44;;;;;;;1.30;1.20;;;20.80;85.70;;;;;;5113822;28;20023;-61
2022/05/27 00:03:11;;;;;;;1.10;0.90;;;20.70;86.10;;;;;;5113869;28;20019;-61
2022/05/27 00:05:37;;;;;;;1.50;0.95;;;20.60;86.20;;;;;;5113807;28;20169;-61
2022/05/27 00:08:04;;;;;;;1.75;0.93;;;20.60;86.90;;;;;;5113691;28;20020;-61
2022/05/27 00:10:29;;;;;;;1.42;0.80;;;20.50;88.30;;;;;;5113652;28;20102;-61
2022/05/27 00:12:55;;;;;;;0.93;0.80;;;20.50;89.60;;;;;;5113634;28;20448;-61
2022/05/27 00:15:21;;;;;;;3.53;1.20;;;20.50;90.10;;;;;;5113514;28;20069;-60
2022/05/27 00:17:46;;;;;;;1.40;0.90;;;20.50;88.50;;;;;;5113528;28;20032;-60
2022/05/27 00:20:13;;;;;;;0.98;0.80;;;20.50;89.70;;;;;;5113626;28;20383;-61
2022/05/27 00:22:39;;;;;;;1.35;0.65;;;20.50;89.30;;;;;;5113808;28;20043;-60
2022/05/27 00:25:06;;;;;;;0.90;0.50;;;20.60;89.50;;;;;;5113214;28;20023;-60
2022/05/27 00:27:32;;;;;;;0.90;0.50;;;20.60;89.50;;;;;;5113595;28;20061;-61
2022/05/27 00:29:57;;;;;;;0.63;0.47;;;20.60;89.50;;;;;;5113501;28;20557;-61
2022/05/27 00:32:23;;;;;;;1.08;0.73;;;20.60;89.70;;;;;;5113330;28;20028;-61
2022/05/27 00:34:49;;;;;;;0.75;0.75;;;20.60;89.60;;;;;;5113424;28;20020;-60
2022/05/27 00:37:15;;;;;;;0.60;0.60;;;20.50;90.00;;;;;;5113631;28;20077;-61
2022/05/27 00:39:41;;;;;;;2.15;0.70;;;20.50;89.90;;;;;;5116556;28;20489;-61
2022/05/27 00:42:08;;;;;;;1.55;0.80;;;20.50;90.00;;;;;;5117294;28;20100;-61
2022/05/27 00:44:34;;;;;;;0.88;0.82;;;20.50;90.10;;;;;;5117356;28;20024;-61
2022/05/27 00:47:06;;;;;;;1.27;0.82;;;20.40;90.60;;;;;;5117297;28;20037;-61
2022/05/27 00:49:34;;;;;;;2.33;0.80;;;20.40;91.50;;;;;;5117371;28;20539;-61
2022/05/27 00:52:07;;;;;;;0.70;0.70;;;20.40;91.30;;;;;;5117265;28;20024;-61
2022/05/27 00:54:34;;;;;;;0.75;0.70;;;20.30;91.30;;;;;;5116851;28;20047;-61
2022/05/27 00:57:16;;;;;;;1.58;0.70;;;20.30;91.60;;;;;;5116800;28;20097;-60
2022/05/27 00:59:57;;;;;;;0.98;0.70;;;20.20;91.80;;;;;;5116988;28;20024;-60
2022/05/27 01:02:23;;;;;;;1.00;0.70;;;20.10;92.60;;;;;;5117088;28;20015;-61
2022/05/27 01:04:50;;;;;;;0.60;0.60;;;20.10;92.60;;;;;;5116937;28;20481;-61
2022/05/27 01:07:16;;;;;;;0.60;0.60;;;20.10;93.00;;;;;;5116774;28;20028;-60
2022/05/27 01:09:45;;;;;;;1.25;0.80;;;20.10;92.60;;;;;;5116758;28;20430;-61
2022/05/27 01:12:22;;;;;;;1.92;1.05;;;20.20;92.60;;;;;;5116729;28;20024;-61
2022/05/27 01:14:53;;;;;;;0.88;0.60;;;20.10;92.70;;;;;;5116972;28;20020;-60
2022/05/27 01:17:40;;;;;;;0.70;0.70;;;20.10;93.20;;;;;;5116690;28;20024;-61
2022/05/27 01:20:18;;;;;;;0.50;0.50;;;20.10;93.60;;;;;;5116908;28;20106;-61
2022/05/27 01:23:07;;;;;;;1.58;0.60;;;20.10;93.00;;;;;;5116402;28;20023;-60
2022/05/27 01:26:03;;;;;;;0.80;0.60;;;20.20;93.00;;;;;;5116553;28;20385;-60
2022/05/27 01:29:07;;;;;;;0.60;0.50;;;20.20;93.00;;;;;;5116434;28;20100;-61
2022/05/27 01:31:50;;;;;;;0.75;0.70;;;20.10;92.80;;;;;;5109631;28;20031;-60
2022/05/27 01:34:40;;;;;;;1.90;0.82;;;20.00;92.80;;;;;;5116379;28;20016;-60
2022/05/27 01:37:12;;;;;;;1.58;0.80;;;20.00;93.50;;;;;;5116301;28;20466;-60
2022/05/27 01:39:50;;;;;;;1.52;0.60;;;20.00;93.60;;;;;;5116335;28;20373;-61
2022/05/27 01:42:43;;;;;;;0.98;0.65;;;20.00;93.60;;;;;;5116314;28;20466;-60
2022/05/27 01:45:11;;;;;;;0.70;0.60;;;19.90;93.90;;;;;;5116049;28;20085;-60
2022/05/27 01:47:39;;;;;;;2.05;0.75;;;19.90;93.80;;;;;;5116091;28;20024;-61
2022/05/27 01:50:22;;;;;;;1.20;0.60;;;20.00;93.80;;;;;;5115963;27;20024;-61
2022/05/27 01:53:06;;;;;;;1.45;0.80;;;20.00;94.00;;;;;;5115774;28;20027;-61
2022/05/27 01:55:34;;;;;;;;;;;20.00;94.30;;;;;;5116010;28;20071;-60
2022/05/27 01:58:10;;;;;;;0.70;0.70;;;19.90;94.70;;;;;;5116160;28;19907;-60
2022/05/27 02:00:39;;;;;;;0.77;0.50;;;19.80;95.40;;;;;;5115823;28;20027;-60
2022/05/27 02:03:30;;;;;;;0.68;0.65;;;19.70;95.50;;;;;;5115999;28;20077;-61
2022/05/27 02:06:14;;;;;;;0.70;0.70;;;19.70;95.30;;;;;;5109456;28;20038;-61
2022/05/27 02:08:51;;;;;;;0.90;0.60;;;19.70;94.80;;;;;;5115753;28;20030;-60
2022/05/27 02:11:22;;;;;;;0.75;0.60;;;19.70;95.20;;;;;;5115853;28;20411;-60
2022/05/27 02:14:02;;;;;;;0.88;0.70;;;19.70;94.90;;;;;;5115718;28;20020;-60
2022/05/27 02:16:36;;;;;;;0.85;0.60;;;19.70;95.50;;;;;;5115529;28;20031;-60
2022/05/27 02:19:35;;;;;;;0.98;0.80;;;19.60;95.30;;;;;;5115487;28;20043;-61
2022/05/27 02:22:11;;;;;;;1.90;0.77;;;19.60;95.40;;;;;;5077439;28;20043;-60
2022/05/27 02:24:43;;;;;;;0.95;0.77;;;19.60;95.90;;;;;;5115460;28;20469;-61
2022/05/27 02:27:16;;;;;;;0.80;0.60;;;19.60;96.50;;;;;;5115191;28;20039;-60
2022/05/27 02:29:48;;;;;;;1.15;0.60;;;19.50;96.50;;;;;;5115521;28;20023;-60
2022/05/27 02:32:19;;;;;;;1.02;0.68;;;19.50;96.10;;;;;;5115211;28;20407;-60
2022/05/27 02:35:09;;;;;;;0.70;0.70;;;19.50;96.10;;;;;;5115191;28;20030;-61
2022/05/27 02:37:47;;;;;;;0.60;0.60;;;19.60;96.30;;;;;;5115213;28;20073;-60
2022/05/27 02:40:23;;;;;;;0.80;0.80;;;19.60;96.30;;;;;;5115196;28;20024;-60
2022/05/27 02:43:08;;;;;;;2.83;1.02;;;19.50;96.60;;;;;;5115204;28;20024;-60
2022/05/27 02:45:48;;;;;;;0.73;0.73;;;19.40;97.10;;;;;;5115036;28;20026;-60
2022/05/27 02:48:37;;;;;;;0.70;0.63;;;19.40;97.60;;;;;;5114784;28;20031;-60
2022/05/27 02:51:44;;;;;;;1.15;0.65;;;19.50;96.80;;;;;;5114627;28;20022;-61
2022/05/27 02:54:39;;;;;;;0.70;0.70;;;19.60;97.20;;;;;;5072040;28;20078;-60
2022/05/27 02:57:17;;;;;;;0.60;0.55;;;19.60;96.80;;;;;;5071939;28;20079;-60
2022/05/27 02:59:44;;;;;;;1.55;0.70;;;19.60;96.90;;;;;;5103888;28;20059;-60
2022/05/27 03:02:14;;;;;;;0.85;0.80;;;19.60;96.80;;;;;;5113870;28;20051;-60
2022/05/27 03:04:48;;;;;;;0.60;0.60;;;19.60;96.90;;;;;;5114404;28;20015;-60
2022/05/27 03:07:28;;;;;;;0.98;0.73;;;19.50;96.80;;;;;;5114461;28;20024;-60
2022/05/27 03:10:17;;;;;;;1.80;0.82;;;19.50;97.00;;;;;;5114452;28;20030;-60
2022/05/27 03:13:09;;;;;;;0.65;0.60;;;19.60;97.10;;;;;;5114589;28;20027;-60
2022/05/27 03:15:40;;;;;;;1.27;0.80;;;19.50;97.20;;;;;;5104789;28;20461;-60
2022/05/27 03:18:36;;;;;;;1.30;0.60;;;19.50;97.40;;;;;;5114358;28;20423;-60
2022/05/27 03:21:16;;;;;;;1.15;0.57;;;19.50;97.40;;;;;;5113548;28;20078;-60
2022/05/27 03:23:50;;;;;;;1.52;0.77;;;19.50;97.30;;;;;;5114169;28;20019;-60
2022/05/27 03:26:35;;;;;;;1.42;0.55;;;19.50;97.30;;;;;;5114097;28;20024;-60
2022/05/27 03:29:33;;;;;;;0.93;0.60;;;19.50;97.00;;;;;;5114439;28;20377;-60
2022/05/27 03:32:15;;;;;;;0.70;0.60;;;19.60;97.30;;;;;;5113639;28;20032;-60
2022/05/27 03:35:13;;;;;;;1.42;0.82;;;19.50;97.30;;;;;;5113785;28;20028;-60
2022/05/27 03:37:54;;;;;;;1.83;0.70;;;19.50;97.80;;;;;;5094740;28;20489;-61
2022/05/27 03:40:28;;;;;;;0.93;0.60;;;19.40;97.40;;;;;;5114196;28;20023;-60
2022/05/27 03:42:55;;;;;;;1.73;0.80;;;19.30;97.90;;;;;;5113853;28;20038;-60
2022/05/27 03:45:23;;;;;;;1.10;0.77;;;19.30;98.00;;;;;;5114042;28;20016;-61
2022/05/27 03:47:50;;;;;;;0.90;0.70;;;19.40;97.80;;;;;;5113679;28;20103;-60
2022/05/27 03:50:25;;;;;;;0.90;0.75;;;19.40;97.80;;;;;;5113781;28;20016;-60
2022/05/27 03:52:54;;;;;;;1.00;0.75;;;19.40;97.80;;;;;;5113805;28;20026;-60
2022/05/27 03:55:26;;;;;;;0.70;0.60;;;19.40;98.00;;;;;;5113765;28;20047;-60
2022/05/27 03:57:52;;;;;;;1.10;0.63;;;19.40;98.10;;;;;;5114043;28;20077;-60
2022/05/27 04:00:19;;;;;;;1.23;0.95;;;19.40;98.10;;;;;;5114027;28;20027;-60
2022/05/27 04:02:45;;;;;;;1.38;0.77;;;19.50;97.70;;;;;;5113718;28;20076;-60
2022/05/27 04:05:15;;;;;;;0.70;0.70;;;19.50;97.90;;;;;;5113497;28;20019;-61
2022/05/27 04:07:41;;;;;;;1.02;0.55;;;19.50;98.00;;;;;;5113772;28;20035;-60
2022/05/27 04:10:08;;;;;;;1.13;0.60;;;19.50;98.10;;;;;;5113896;28;20024;-60
2022/05/27 04:12:35;;;;;;;0.75;0.75;;;19.50;98.00;;;;;;5115409;28;20023;-60
2022/05/27 04:15:02;;;;;;;1.00;0.75;;;19.60;98.30;;;;;;5117965;28;20027;-60
2022/05/27 04:17:30;;;;;;;1.90;0.80;;;19.50;99.00;;;;;;5117591;28;20069;-61
2022/05/27 04:20:00;;;;;;;1.05;0.80;;;19.60;99.50;;;;;;5118020;28;20027;-60
2022/05/27 04:22:26;;;;;;;1.55;0.90;;;19.60;99.50;;;;;;5117880;28;20043;-61
2022/05/27 04:24:52;;;;;;;0.85;0.80;;;19.60;99.90;;;;;;5117865;28;20019;-61
2022/05/27 04:27:19;;;;;;;0.98;0.82;;;19.70;99.60;;;;;;5117506;27;20161;-60
2022/05/27 04:29:49;;;;;;;1.20;0.80;;;19.80;99.50;;;;;;5117612;28;20024;-61
2022/05/27 04:32:15;;;;;;;1.17;1.08;;;19.90;99.30;;;;;;5117612;28;20019;-61
2022/05/27 04:34:41;;;;;;;2.15;0.90;;;20.00;99.20;;;;;;5117756;28;20027;-61
2022/05/27 04:37:07;;;;;;;0.93;0.93;;;20.00;99.00;;;;;;5117358;28;20092;-60
2022/05/27 04:39:34;;;;;;;1.00;0.98;;;20.00;98.80;;;;;;5117515;28;20028;-60
2022/05/27 04:42:00;;;;;;;1.08;0.95;;;20.10;99.10;;;;;;5117313;28;20426;-61
2022/05/27 04:44:26;;;;;;;1.20;0.80;;;20.20;98.60;;;;;;5117641;28;20107;-60
2022/05/27 04:46:51;;;;;;;0.90;0.90;;;20.20;98.40;;;;;;5117362;28;20030;-61
2022/05/27 04:52:02;;;;;;;1.20;1.08;;;20.50;98.10;;;;;;5117449;28;20030;-60
2022/05/27 04:54:28;;;;;;;1.70;1.33;;;20.60;97.30;;;;;;5116588;28;20069;-61
2022/05/27 04:56:55;;;;;;;2.25;2.00;;;20.60;97.40;;;;;;5115957;28;20043;-60
2022/05/27 04:59:21;;;;;;;2.58;2.03;;;20.50;97.40;;;;;;5116642;28;20417;-61
2022/05/27 05:01:47;;;;;;;2.25;1.65;;;20.40;97.60;;;;;;5116368;28;20108;-61
2022/05/27 05:04:13;;;;;;;2.10;1.50;;;20.20;97.80;;;;;;5115910;28;20077;-60
2022/05/27 05:06:39;;;;;;;2.17;1.48;;;20.30;98.00;;;;;;5116604;28;20019;-60
2022/05/27 05:09:05;;;;;;;3.58;1.73;;;20.40;97.70;;;;;;5116718;28;20057;-61
2022/05/27 05:11:31;;;;;;;2.28;1.65;;;20.60;97.80;;;;;;5116520;28;20435;-61
2022/05/27 05:13:56;;;;;;;2.25;1.65;;;20.70;97.90;;;;;;5115633;28;20458;-60
2022/05/27 05:16:22;;;;;;;2.08;1.50;;;20.70;97.20;;;;;;5115783;28;20088;-61
2022/05/27 05:18:50;;;;;;;1.83;1.55;;;20.80;96.80;;;;;;5116436;28;20020;-61
2022/05/27 05:21:16;;;;;;;1.90;1.42;;;20.90;96.80;;;;;;5116552;28;20022;-60
2022/05/27 05:23:42;;;;;;;1.67;1.50;;;21.10;96.80;;;;;;5114227;28;20419;-61
2022/05/27 05:26:08;;;;;;;1.50;1.35;;;21.10;96.50;;;;;;5114558;28;20028;-61
2022/05/27 05:28:34;;;;;;;1.83;1.17;;;21.20;96.30;;;;;;5114364;28;20024;-61
2022/05/27 05:30:59;;;;;;;1.65;1.10;;;21.30;96.10;;;;;;5114687;28;20026;-61
2022/05/27 05:33:25;;;;;;;1.88;1.30;;;21.40;96.10;;;;;;5104037;28;20114;-60
2022/05/27 05:35:51;;;;;;;1.83;1.50;;;21.50;95.30;;;;;;5101421;28;20394;-61
2022/05/27 05:38:19;;;;;;;2.03;1.10;;;21.50;95.30;;;;;;5096174;28;20035;-60
2022/05/27 05:40:46;;;;;;;1.00;0.93;;;21.60;95.40;;;;;;5114997;28;20051;-61
2022/05/27 05:43:13;;;;;;;1.23;1.00;;;21.70;94.90;;;;;;5115642;28;20020;-60
2022/05/27 05:45:39;;;;;;;2.15;1.27;;;21.80;94.60;;;;;;5104119;28;20493;-61
2022/05/27 05:48:06;;;;;;;1.83;1.20;;;21.90;94.60;;;;;;5092905;28;20029;-61
2022/05/27 05:50:33;;;;;;;1.30;1.20;;;22.00;93.60;;;;;;5110008;28;20034;-61
2022/05/27 05:52:59;;;;;;;1.05;0.95;;;22.20;94.10;;;;;;5094100;27;20028;-61
2022/05/27 05:55:25;;;;;;;1.20;1.10;;;22.40;94.10;;;;;;5092467;28;20052;-61
2022/05/27 05:57:51;;;;;;;1.98;1.00;;;22.60;93.80;;;;;;5102022;28;20354;-61
2022/05/27 06:00:21;;;;;;;1.38;1.23;;;22.80;92.50;;;;;;5114402;28;20055;-61
2022/05/27 06:02:47;;;;;;;1.67;1.45;;;22.90;92.00;;;;;;5113009;28;20026;-61
2022/05/27 06:05:12;;;;;;;2.15;1.40;;;23.00;92.50;;;;;;5113091;28;20538;-61
2022/05/27 06:07:38;;;;;;;1.67;1.58;;;23.20;92.70;;;;;;5114782;28;20028;-61
2022/05/27 06:10:05;;;;;;;5.55;1.40;;;23.30;90.90;;;;;;5113294;28;20086;-61
2022/05/27 06:12:36;;;;;;;2.17;1.30;;;23.40;91.60;;;;;;5111759;28;20016;-61
2022/05/27 06:15:04;;;;;;;1.33;1.23;;;23.50;90.80;;;;;;5096734;28;20024;-61
2022/05/27 06:17:30;;;;;;;1.80;1.50;;;23.70;90.40;;;;;;5106919;28;20028;-61
2022/05/27 06:19:56;;;;;;;1.60;1.30;;;23.90;90.60;;;;;;5112802;28;20023;-61
2022/05/27 06:22:22;;;;;;;1.88;1.45;;;24.10;90.10;;;;;;5108342;28;20420;-61
2022/05/27 06:24:47;;;;;;;1.75;1.45;;;24.20;90.50;;;;;;5107891;27;20029;-61
2022/05/27 06:27:14;;;;;;;1.83;1.35;;;24.40;88.40;;;;;;5102767;28;20489;-61
2022/05/27 06:35:09;;;;;;;2.00;1.70;;;24.80;88.40;;;;;;5088929;28;20073;-61
2022/05/27 06:37:35;;;;;;;2.30;1.95;;;24.60;87.30;;;;;;5089577;28;20448;-61
2022/05/27 06:40:01;;;;;;;1.80;1.70;;;24.60;87.00;;;;;;5091816;28;20032;-61
2022/05/27 06:42:27;;;;;;;3.22;1.65;;;24.60;87.50;;;;;;5092451;28;20016;-61
2022/05/27 06:44:53;;;;;;;3.28;1.70;;;24.60;86.80;;;;;;5094757;28;20367;-61
2022/05/27 06:47:19;;;;;;;2.53;1.40;;;24.70;85.60;;;;;;5111704;28;20053;-61
2022/05/27 06:49:45;;;;;;;2.63;1.73;;;24.80;87.20;;;;;;5112792;28;20016;-61
2022/05/27 06:52:13;;;;;;;4.15;1.90;;;24.90;85.80;;;;;;5112608;28;20377;-62
2022/05/27 06:54:39;;;;;;;6.13;2.10;;;24.90;86.40;;;;;;5113251;28;20106;-59
2022/05/27 06:57:06;;;;;;;1.63;1.50;;;25.00;85.40;;;;;;5110052;28;20043;-60
2022/05/27 06:59:33;;;;;;;2.05;1.30;;;25.10;83.00;;;;;;5107784;28;20028;-60
2022/05/27 07:01:59;;;;;;;2.10;1.48;;;25.30;82.60;;;;;;5104392;28;20032;-60
2022/05/27 07:04:26;;;;;;;5.00;2.25;;;25.50;80.50;;;;;;5105502;28;20118;-60
2022/05/27 07:06:52;;;;;;;2.10;1.90;;;25.50;81.50;;;;;;5108970;28;20439;-60
2022/05/27 07:09:21;;;;;;;3.35;2.15;;;25.60;82.00;;;;;;5111502;28;20111;-60
2022/05/27 07:11:49;;;;;;;3.65;2.10;;;26.00;80.40;;;;;;5111855;28;20024;-60
2022/05/27 07:14:16;;;;;;;3.97;1.83;;;26.40;80.50;;;;;;5111118;28;20027;-60
2022/05/27 07:16:43;;;;;;;3.75;1.80;;;26.50;78.30;;;;;;5111620;28;20084;-60
2022/05/27 07:19:09;;;;;;;3.70;1.90;;;26.70;77.00;;;;;;5112613;28;20095;-60
2022/05/27 07:21:40;;;;;;;1.73;1.60;;;26.70;77.50;;;;;;5110523;28;20466;-60
2022/05/27 07:27:28;;;;;;;3.97;2.03;;;27.10;77.10;;;;;;5092301;28;20042;-60
2022/05/27 07:29:53;;;;;;;4.30;1.67;;;27.60;73.30;;;;;;5095140;28;20138;-59
2022/05/27 07:32:19;;;;;;;1.60;1.50;;;29.10;70.70;;;;;;5091787;28;20105;-60
2022/05/27 07:34:46;;;;;;;2.60;1.85;;;30.80;67.30;;;;;;5090000;28;20016;-61
2022/05/27 07:37:12;;;;;;;1.73;1.30;;;32.40;63.30;;;;;;5111702;28;20420;-61
2022/05/27 07:39:38;;;;;;;2.58;1.60;;;33.50;59.10;;;;;;5111721;28;20076;-59
2022/05/27 07:42:04;;;;;;;3.42;1.50;;;34.40;55.80;;;;;;5109416;28;20337;-59
2022/05/27 07:44:30;;;;;;;1.55;1.40;;;35.10;53.60;;;;;;5108684;28;20445;-59
2022/05/27 07:46:56;;;;;;;3.38;1.60;;;36.00;51.10;;;;;;5096019;28;20111;-59
2022/05/27 07:49:22;;;;;;;2.17;1.50;;;36.60;49.50;;;;;;5107339;27;20034;-59
2022/05/27 07:51:51;;;;;;;1.67;1.30;;;36.40;49.20;;;;;;5113889;27;20035;-59
2022/05/27 07:54:18;;;;;;;3.17;1.48;;;36.80;47.50;;;;;;5108866;28;20024;-61
2022/05/27 07:56:43;;;;;;;2.00;1.35;;;36.90;46.50;;;;;;5113090;28;20050;-63
2022/05/27 07:59:10;;;;;;;4.47;1.65;;;36.90;46.30;;;;;;5113674;28;20434;-62
2022/05/27 08:01:36;;;;;;;2.33;1.40;;;37.20;45.90;;;;;;5113535;28;20020;-60
2022/05/27 08:04:04;;;;;;;2.33;1.30;;;36.70;45.30;;;;;;5113337;28;20027;-60
2022/05/27 08:06:29;;;;;;;4.50;1.77;;;37.00;45.10;;;;;;5113615;28;20023;-61
2022/05/27 08:08:55;;;;;;;4.72;1.48;;;36.90;44.80;;;;;;5113562;28;20023;-62
2022/05/27 08:11:21;;;;;;;3.40;1.75;;;36.80;44.80;;;;;;5112708;28;20015;-60
2022/05/27 08:13:46;;;;;;;2.17;1.70;;;36.90;45.10;;;;;;5112959;28;20081;-60
2022/05/27 08:16:12;;;;;;;1.60;1.48;;;36.90;46.50;;;;;;5113313;28;20038;-63
2022/05/27 08:18:38;;;;;;;1.67;1.30;;;37.20;44.70;;;;;;5111477;28;20077;-63
2022/05/27 08:21:04;;;;;;;1.50;1.40;;;37.50;46.00;;;;;;5112514;28;20019;-64
2022/05/27 08:23:29;;;;;;;2.28;1.63;;;38.00;45.10;;;;;;5110214;28;20023;-64
2022/05/27 08:25:56;;;;;;;1.77;1.40;;;38.20;44.10;;;;;;5110537;28;20027;-64
2022/05/27 08:28:24;;;;;;;2.10;1.30;;;38.20;45.40;;;;;;5112145;28;20054;-63
2022/05/27 08:30:55;;;;;;;1.80;1.38;;;38.30;44.90;;;;;;5110059;28;20024;-64
2022/05/27 08:33:22;;;;;;;1.27;1.17;;;38.70;45.20;;;;;;5097916;28;20073;-64
2022/05/27 08:38:34;;;;;;;1.38;1.23;;;38.80;43.50;;;;;;5109168;28;20401;-63
2022/05/27 08:41:05;;;;;;;4.28;1.95;;;39.00;43.80;;;;;;5111336;28;20027;-62
2022/05/27 08:43:49;;;;;;;1.95;1.50;;;39.10;44.50;;;;;;5110611;28;20058;-63
2022/05/27 08:46:29;;;;;;;1.40;1.30;;;39.00;45.80;;;;;;5108884;28;20062;-63
2022/05/27 08:49:00;;;;;;;1.98;1.50;;;39.20;43.60;;;;;;5111782;28;20020;-62
2022/05/27 08:51:33;;;;;;;1.45;1.30;;;39.40;43.10;;;;;;5112729;28;20024;-64
2022/05/27 08:54:12;;;;;;;1.95;1.40;;;39.30;43.20;;;;;;5111786;28;20019;-63
2022/05/27 08:59:48;;;;;;;2.78;1.75;;;38.80;44.70;;;;;;5113728;28;20096;-63
2022/05/27 09:02:36;;;;;;;2.60;1.52;;;39.10;43.70;;;;;;5115258;28;20020;-63
2022/05/27 09:05:22;;;;;;;2.17;1.40;;;39.30;43.50;;;;;;5114310;28;20020;-64
2022/05/27 09:08:09;;;;;;;2.50;1.40;;;39.60;42.30;;;;;;5115313;28;20118;-63
2022/05/27 09:10:54;;;;;;;1.65;1.55;;;39.50;44.90;;;;;;5113452;28;20028;-63
2022/05/27 09:13:36;;;;;;;2.28;1.73;;;39.60;43.80;;;;;;5115381;28;20053;-64
2022/05/27 09:16:24;;;;;;;;;;;39.40;42.50;;;;;;5116066;28;20393;-63
2022/05/27 09:19:21;;;;;;;1.70;1.60;;;39.00;43.20;;;;;;5109866;28;19948;-63
2022/05/27 09:21:57;;;;;;;2.53;1.30;;;39.10;44.00;;;;;;5116590;28;20027;-63
2022/05/27 09:24:52;;;;;;;2.20;1.70;;;39.30;44.20;;;;;;5116427;27;20107;-63
2022/05/27 09:27:33;;;;;;;2.35;1.85;;;39.40;43.50;;;;;;5115805;28;20051;-63
2022/05/27 09:30:02;;;;;;;1.90;1.70;;;38.70;44.40;;;;;;5114828;28;20020;-62
2022/05/27 09:32:33;;;;;;;1.95;1.80;;;38.30;45.90;;;;;;5114500;28;20127;-63
2022/05/27 09:35:11;;;;;;;2.13;1.92;;;38.70;43.90;;;;;;5113411;28;20429;-62
2022/05/27 09:37:48;;;;;;;1.58;1.48;;;39.00;42.40;;;;;;5113888;28;20081;-62
2022/05/27 09:40:28;;;;;;;1.83;1.52;;;39.30;41.90;;;;;;5113766;28;20085;-63
2022/05/27 09:43:07;;;;;;;2.78;1.63;;;39.50;43.20;;;;;;5113765;28;20035;-62
2022/05/27 09:45:35;;;;;;;3.17;1.80;;;39.30;43.30;;;;;;5111710;28;20511;-62
2022/05/27 09:48:11;;;;;;;2.03;1.58;;;39.30;43.10;;;;;;5115023;27;20035;-61
2022/05/27 09:50:40;;;;;;;1.55;1.40;;;39.00;43.50;;;;;;5113912;28;20038;-62
2022/05/27 09:53:07;;;;;;;3.05;1.73;;;38.90;45.60;;;;;;5115089;28;20024;-62
2022/05/27 09:55:52;;;;;;;2.70;1.90;;;39.00;44.00;;;;;;5114090;28;20074;-64
2022/05/27 09:58:30;;;;;;;2.90;1.98;;;38.80;42.90;;;;;;5112566;28;20389;-63
2022/05/27 10:00:56;;;;;;;2.08;1.88;;;38.30;45.50;;;;;;5113405;28;20134;-64
2022/05/27 10:03:24;;;;;;;2.03;1.88;;;38.20;43.00;;;;;;5112928;28;20027;-64
2022/05/27 10:06:01;;;;;;;3.03;1.85;;;38.40;45.20;;;;;;5094413;27;20024;-62
2022/05/27 10:08:35;;;;;;;1.83;1.70;;;38.70;43.90;;;;;;5090132;28;20028;-63
2022/05/27 10:11:09;;;;;;;5.57;2.13;;;39.00;44.40;;;;;;5089591;28;20509;-65
2022/05/27 10:13:35;;;;;;;2.83;1.85;;;39.00;43.40;;;;;;5090827;28;20027;-63
2022/05/27 10:16:10;;;;;;;1.90;1.67;;;38.90;42.70;;;;;;5089103;28;20021;-62
2022/05/27 10:18:37;;;;;;;2.08;1.77;;;38.80;45.90;;;;;;5089902;28;20028;-64
2022/05/27 10:21:10;;;;;;;2.45;1.83;;;39.00;41.90;;;;;;5090231;28;20044;-63
2022/05/27 10:23:38;;;;;;;2.88;2.08;;;39.30;41.70;;;;;;5092006;28;20505;-64
2022/05/27 10:26:27;;;;;;;2.75;2.13;;;39.20;42.60;;;;;;5092701;28;20031;-65
2022/05/27 10:28:57;;;;;;;2.97;2.30;;;39.20;42.10;;;;;;5090909;28;20016;-64
2022/05/27 10:31:24;;;;;;;4.40;2.17;;;39.00;40.40;;;;;;5091814;28;20095;-64
2022/05/27 10:33:50;;;;;;;2.95;1.80;;;38.60;40.40;;;;;;5093188;28;20020;-64
2022/05/27 10:36:38;;;;;;;2.63;1.95;;;38.70;42.30;;;;;;5094395;28;20031;-61
2022/05/27 10:39:08;;;;;;;2.50;1.90;;;38.70;41.50;;;;;;5094245;28;20115;-65
2022/05/27 10:41:57;;;;;;;2.15;2.00;;;39.00;41.50;;;;;;5093892;28;20062;-62
2022/05/27 10:44:55;;;;;;;3.22;2.25;;;39.30;41.10;;;;;;5074995;28;20028;-63
2022/05/27 10:48:03;;;;;;;2.70;2.25;;;39.10;40.60;;;;;;5100570;28;20038;-65
2022/05/27 10:51:06;;;;;;;2.58;2.00;;;39.00;42.10;;;;;;5093213;28;20114;-64
2022/05/27 10:53:34;;;;;;;;;;;39.10;40.60;;;;;;5045263;28;20029;-64
2022/05/27 10:56:11;;;;;;;3.15;2.20;;;39.10;40.50;;;;;;5111691;28;20289;-62
2022/05/27 11:02:34;;;;;;;2.47;2.28;;;39.40;41.60;;;;;;5112851;28;20042;-63
2022/05/27 11:05:14;;;;;;;3.85;1.98;;;39.50;41.70;;;;;;5076417;28;20494;-62
2022/05/27 11:07:59;;;;;;;3.58;1.92;;;39.50;41.10;;;;;;5113730;28;20438;-63
2022/05/27 11:10:34;;;;;;;2.30;1.88;;;39.30;43.10;;;;;;5114521;28;20470;-63
2022/05/27 11:16:45;;;;;;;5.32;2.92;;;39.10;39.90;;;;;;5112755;28;20053;-63
2022/05/27 11:19:13;;;;;;;6.88;3.22;;;38.80;41.90;;;;;;5110772;28;20039;-63
2022/05/27 11:21:51;;;;;;;6.05;2.65;;;38.10;42.60;;;;;;5103917;28;20044;-63
2022/05/27 11:24:49;;;;;;;4.60;2.55;;;38.10;42.60;;;;;;5110011;28;20023;-62
2022/05/27 11:27:53;;;;;;;3.17;2.55;;;38.50;40.80;;;;;;5111354;28;20019;-63
2022/05/27 11:30:50;;;;;;;2.75;2.00;;;39.00;41.40;;;;;;5071978;28;20036;-62
2022/05/27 11:33:37;;;;;;;3.65;2.30;;;39.00;43.30;;;;;;5111531;28;20028;-61
2022/05/27 11:36:24;;;;;;;2.95;2.17;;;39.30;43.00;;;;;;5110594;28;20031;-62
2022/05/27 11:38:59;;;;;;;3.38;2.60;;;39.20;43.90;;;;;;5110661;28;20055;-61
2022/05/27 11:41:51;;;;;;;3.40;2.58;;;39.10;43.20;;;;;;5108606;28;20023;-60
2022/05/27 11:44:44;;;;;;;3.72;2.70;;;39.00;42.00;;;;;;5090275;28;20035;-61
2022/05/27 11:47:25;;;;;;;6.60;3.00;;;38.80;41.40;;;;;;5111661;28;20027;-60
2022/05/27 11:49:57;;;;;;;4.60;2.90;;;38.00;41.10;;;;;;5110130;28;20612;-62
2022/05/27 11:52:41;;;;;;;3.78;2.80;;;37.80;42.90;;;;;;5111772;28;20024;-61
2022/05/27 11:55:21;;;;;;;3.88;2.70;;;38.10;44.70;;;;;;5112154;28;20177;-61
2022/05/27 11:58:14;;;;;;;3.33;2.58;;;38.40;43.20;;;;;;5112652;28;20092;-61
2022/05/27 12:00:45;;;;;;;4.15;2.70;;;38.60;41.60;;;;;;5111903;28;20031;-60
2022/05/27 12:03:13;;;;;;;3.60;2.75;;;38.70;44.10;;;;;;5110523;28;20027;-59
2022/05/27 12:05:47;;;;;;;5.10;3.05;;;38.70;43.00;;;;;;5112796;28;20023;-59
2022/05/27 12:08:21;;;;;;;6.63;3.10;;;38.80;42.90;;;;;;5110444;28;20027;-60
2022/05/27 12:10:57;;;;;;;5.07;3.25;;;38.80;43.40;;;;;;5110367;28;20043;-61
2022/05/27 12:13:36;;;;;;;3.90;3.03;;;38.70;44.00;;;;;;5111021;28;20577;-61
2022/05/27 12:16:07;;;;;;;5.88;3.25;;;38.80;41.80;;;;;;5110503;28;20020;-61
2022/05/27 12:18:41;;;;;;;4.18;3.33;;;38.80;41.80;;;;;;5112032;28;20031;-61
2022/05/27 12:21:11;;;;;;;2.88;2.60;;;38.90;43.50;;;;;;5112532;28;20020;-60
2022/05/27 12:23:42;;;;;;;4.57;2.90;;;39.10;44.30;;;;;;5113320;28;20422;-61
2022/05/27 12:26:08;;;;;;;3.53;2.92;;;39.00;43.20;;;;;;5113265;28;20023;-60
2022/05/27 12:28:40;;;;;;;3.90;2.78;;;39.00;42.90;;;;;;5112260;28;20035;-61
2022/05/27 12:31:07;;;;;;;3.78;2.75;;;38.90;42.60;;;;;;5111335;28;20011;-61
2022/05/27 12:33:36;;;;;;;5.88;2.90;;;39.00;42.20;;;;;;5113406;28;20020;-61
2022/05/27 12:36:20;;;;;;;4.85;2.70;;;39.00;40.00;;;;;;5116598;28;20495;-60
2022/05/27 12:38:49;;;;;;;5.28;3.15;;;38.70;41.60;;;;;;5115958;28;20023;-61
2022/05/27 12:41:30;;;;;;;4.30;3.08;;;38.60;40.80;;;;;;5116640;28;20019;-61
2022/05/27 12:44:20;;;;;;;5.65;2.80;;;38.70;41.50;;;;;;5114271;28;20536;-59
2022/05/27 12:46:50;;;;;;;5.13;3.15;;;38.80;42.00;;;;;;5115090;28;20020;-61
2022/05/27 12:49:39;;;;;;;5.10;2.80;;;39.00;41.60;;;;;;5114970;28;20526;-60
2022/05/27 12:52:27;;;;;;;4.82;2.92;;;39.10;41.80;;;;;;5114975;28;20378;-61
2022/05/27 12:54:53;;;;;;;5.35;2.75;;;39.00;42.10;;;;;;5115524;28;20031;-60
2022/05/27 13:03:33;;;;;;;3.92;2.70;;;39.20;40.80;;;;;;5117148;28;20088;-62
2022/05/27 13:06:12;;;;;;;4.07;3.10;;;39.30;39.40;;;;;;5116882;28;20020;-61
2022/05/27 13:08:53;;;;;;;4.30;2.60;;;39.40;41.30;;;;;;5116963;28;20374;-60
2022/05/27 13:11:21;;;;;;;6.28;2.90;;;39.50;42.20;;;;;;5116839;28;20020;-61
2022/05/27 13:13:52;;;;;;;3.85;2.90;;;39.10;39.70;;;;;;5116672;28;20023;-61
2022/05/27 13:16:28;;;;;;;5.97;3.30;;;38.90;43.60;;;;;;5117003;28;20032;-60
2022/05/27 13:19:23;;;;;;;3.20;2.90;;;38.60;40.80;;;;;;5116855;28;20476;-60
2022/05/27 13:21:51;;;;;;;4.95;2.97;;;38.50;41.00;;;;;;5116606;28;20427;-60
2022/05/27 13:24:20;;;;;;;4.35;3.00;;;38.60;40.30;;;;;;5116634;28;20489;-61
2022/05/27 13:26:51;;;;;;;4.75;2.90;;;38.80;41.20;;;;;;5116525;28;20107;-60
2022/05/27 13:29:26;;;;;;;6.28;3.25;;;38.90;41.20;;;;;;5116250;28;20580;-61
2022/05/27 13:31:55;;;;;;;3.55;2.83;;;39.00;42.30;;;;;;5116523;28;20022;-61
2022/05/27 13:34:31;;;;;;;6.05;3.58;;;38.80;41.20;;;;;;5116216;28;20497;-61
2022/05/27 13:37:04;;;;;;;5.65;3.42;;;38.80;42.00;;;;;;5116342;28;20195;-61
2022/05/27 13:39:41;;;;;;;5.10;3.22;;;39.10;42.40;;;;;;5116378;28;20024;-61
2022/05/27 13:42:11;;;;;;;5.20;3.28;;;39.20;40.50;;;;;;5116424;28;20050;-61
2022/05/27 13:44:40;;;;;;;6.38;3.22;;;39.20;41.70;;;;;;5115707;28;20058;-61
2022/05/27 13:47:10;;;;;;;5.28;3.20;;;39.20;40.70;;;;;;5116296;28;20083;-61
2022/05/27 13:49:42;;;;;;;4.57;3.15;;;38.60;40.10;;;;;;5116354;28;20023;-61